sensor_id;sensor_type;location;lat;lon;timestamp;P1;durP1;ratioP1;P2;durP2;ratioP2
59907;SDS011;61804;54.926;73.496;2023-12-20T00:01:22;15.18;;;10.10;;
59907;SDS011;61804;54.926;73.496;2023-12-20T00:03:49;21.55;;;12.93;;
59907;SDS011;61804;54.926;73.496;2023-12-20T00:06:18;35.95;;;20.02;;
59907;SDS011;61804;54.926;73.496;2023-12-20T00:08:45;50.28;;;25.90;;
59907;SDS011;61804;54.926;73.496;2023-12-20T00:11:13;20.17;;;13.75;;
59907;SDS011;61804;54.926;73.496;2023-12-20T00:13:40;21.35;;;11.95;;
59907;SDS011;61804;54.926;73.496;2023-12-20T00:16:09;18.40;;;8.75;;
59907;SDS011;61804;54.926;73.496;2023-12-20T00:18:38;11.50;;;8.75;;
59907;SDS011;61804;54.926;73.496;2023-12-20T00:21:05;21.60;;;7.85;;
59907;SDS011;61804;54.926;73.496;2023-12-20T00:23:33;16.30;;;8.48;;
59907;SDS011;61804;54.926;73.496;2023-12-20T00:26:03;29.48;;;12.93;;
59907;SDS011;61804;54.926;73.496;2023-12-20T00:28:30;22.38;;;12.88;;
59907;SDS011;61804;54.926;73.496;2023-12-20T00:30:59;22.95;;;12.63;;
59907;SDS011;61804;54.926;73.496;2023-12-20T00:33:28;54.30;;;13.00;;
59907;SDS011;61804;54.926;73.496;2023-12-20T00:35:55;23.98;;;12.80;;
59907;SDS011;61804;54.926;73.496;2023-12-20T00:38:22;12.02;;;9.00;;
59907;SDS011;61804;54.926;73.496;2023-12-20T00:40:51;15.32;;;9.32;;
59907;SDS011;61804;54.926;73.496;2023-12-20T00:43:18;15.68;;;10.95;;
59907;SDS011;61804;54.926;73.496;2023-12-20T00:45:46;19.20;;;12.38;;
59907;SDS011;61804;54.926;73.496;2023-12-20T00:48:16;38.55;;;23.17;;
59907;SDS011;61804;54.926;73.496;2023-12-20T00:50:45;35.70;;;20.73;;
59907;SDS011;61804;54.926;73.496;2023-12-20T00:53:13;38.17;;;22.88;;
59907;SDS011;61804;54.926;73.496;2023-12-20T00:55:40;52.40;;;25.48;;
59907;SDS011;61804;54.926;73.496;2023-12-20T00:58:09;29.80;;;15.02;;
59907;SDS011;61804;54.926;73.496;2023-12-20T01:00:37;51.47;;;27.83;;
59907;SDS011;61804;54.926;73.496;2023-12-20T01:03:04;33.70;;;24.08;;
59907;SDS011;61804;54.926;73.496;2023-12-20T01:05:32;30.02;;;19.48;;
59907;SDS011;61804;54.926;73.496;2023-12-20T01:08:00;41.63;;;14.13;;
59907;SDS011;61804;54.926;73.496;2023-12-20T01:10:30;16.48;;;10.68;;
59907;SDS011;61804;54.926;73.496;2023-12-20T01:12:57;36.75;;;17.45;;
59907;SDS011;61804;54.926;73.496;2023-12-20T01:15:25;22.25;;;14.18;;
59907;SDS011;61804;54.926;73.496;2023-12-20T01:17:52;20.73;;;10.50;;
59907;SDS011;61804;54.926;73.496;2023-12-20T01:20:19;18.45;;;11.52;;
59907;SDS011;61804;54.926;73.496;2023-12-20T01:22:47;23.02;;;11.45;;
59907;SDS011;61804;54.926;73.496;2023-12-20T01:25:14;24.17;;;12.52;;
59907;SDS011;61804;54.926;73.496;2023-12-20T01:27:42;18.50;;;11.38;;
59907;SDS011;61804;54.926;73.496;2023-12-20T01:30:10;29.48;;;16.65;;
59907;SDS011;61804;54.926;73.496;2023-12-20T01:32:38;34.10;;;22.98;;
59907;SDS011;61804;54.926;73.496;2023-12-20T01:35:07;22.73;;;14.65;;
59907;SDS011;61804;54.926;73.496;2023-12-20T01:37:34;24.70;;;14.45;;
59907;SDS011;61804;54.926;73.496;2023-12-20T01:40:03;46.92;;;22.23;;
59907;SDS011;61804;54.926;73.496;2023-12-20T01:42:31;33.25;;;19.63;;
59907;SDS011;61804;54.926;73.496;2023-12-20T01:45:00;48.78;;;29.40;;
59907;SDS011;61804;54.926;73.496;2023-12-20T01:47:27;25.58;;;13.82;;
59907;SDS011;61804;54.926;73.496;2023-12-20T01:49:55;20.58;;;11.32;;
59907;SDS011;61804;54.926;73.496;2023-12-20T01:52:25;16.17;;;9.48;;
59907;SDS011;61804;54.926;73.496;2023-12-20T01:54:52;33.08;;;19.10;;
59907;SDS011;61804;54.926;73.496;2023-12-20T01:57:22;50.13;;;27.45;;
59907;SDS011;61804;54.926;73.496;2023-12-20T01:59:50;24.38;;;15.23;;
59907;SDS011;61804;54.926;73.496;2023-12-20T02:02:17;23.50;;;13.02;;
59907;SDS011;61804;54.926;73.496;2023-12-20T02:04:45;32.47;;;21.45;;
59907;SDS011;61804;54.926;73.496;2023-12-20T02:07:14;33.33;;;24.35;;
59907;SDS011;61804;54.926;73.496;2023-12-20T02:09:42;13.63;;;8.75;;
59907;SDS011;61804;54.926;73.496;2023-12-20T02:12:10;7.50;;;6.80;;
59907;SDS011;61804;54.926;73.496;2023-12-20T02:14:38;8.07;;;5.55;;
59907;SDS011;61804;54.926;73.496;2023-12-20T02:17:05;17.35;;;5.47;;
59907;SDS011;61804;54.926;73.496;2023-12-20T02:19:33;9.10;;;5.43;;
59907;SDS011;61804;54.926;73.496;2023-12-20T02:22:09;10.82;;;6.43;;
59907;SDS011;61804;54.926;73.496;2023-12-20T02:24:37;10.32;;;7.50;;
59907;SDS011;61804;54.926;73.496;2023-12-20T02:27:05;9.38;;;5.97;;
59907;SDS011;61804;54.926;73.496;2023-12-20T02:29:33;5.03;;;4.53;;
59907;SDS011;61804;54.926;73.496;2023-12-20T02:32:02;9.88;;;5.22;;
59907;SDS011;61804;54.926;73.496;2023-12-20T02:34:30;26.65;;;15.07;;
59907;SDS011;61804;54.926;73.496;2023-12-20T02:36:59;17.33;;;10.48;;
59907;SDS011;61804;54.926;73.496;2023-12-20T02:39:26;7.32;;;6.40;;
59907;SDS011;61804;54.926;73.496;2023-12-20T02:41:55;6.82;;;5.60;;
59907;SDS011;61804;54.926;73.496;2023-12-20T02:44:22;9.20;;;5.97;;
59907;SDS011;61804;54.926;73.496;2023-12-20T02:46:50;11.65;;;7.30;;
59907;SDS011;61804;54.926;73.496;2023-12-20T02:49:17;11.02;;;6.45;;
59907;SDS011;61804;54.926;73.496;2023-12-20T02:51:45;7.85;;;5.30;;
59907;SDS011;61804;54.926;73.496;2023-12-20T02:54:13;6.45;;;4.32;;
59907;SDS011;61804;54.926;73.496;2023-12-20T02:56:41;9.18;;;4.95;;
59907;SDS011;61804;54.926;73.496;2023-12-20T02:59:08;10.90;;;6.68;;
59907;SDS011;61804;54.926;73.496;2023-12-20T03:01:43;6.43;;;5.03;;
59907;SDS011;61804;54.926;73.496;2023-12-20T03:04:12;16.30;;;7.28;;
59907;SDS011;61804;54.926;73.496;2023-12-20T03:06:39;14.27;;;8.73;;
59907;SDS011;61804;54.926;73.496;2023-12-20T03:09:07;14.77;;;10.77;;
59907;SDS011;61804;54.926;73.496;2023-12-20T03:11:35;15.45;;;9.20;;
59907;SDS011;61804;54.926;73.496;2023-12-20T03:14:03;13.65;;;9.80;;
59907;SDS011;61804;54.926;73.496;2023-12-20T03:16:31;15.75;;;7.90;;
59907;SDS011;61804;54.926;73.496;2023-12-20T03:19:00;14.93;;;9.13;;
59907;SDS011;61804;54.926;73.496;2023-12-20T03:21:28;11.70;;;8.05;;
59907;SDS011;61804;54.926;73.496;2023-12-20T03:23:56;24.10;;;11.38;;
59907;SDS011;61804;54.926;73.496;2023-12-20T03:26:24;11.88;;;7.00;;
59907;SDS011;61804;54.926;73.496;2023-12-20T03:28:52;7.95;;;5.30;;
59907;SDS011;61804;54.926;73.496;2023-12-20T03:31:20;20.88;;;9.02;;
59907;SDS011;61804;54.926;73.496;2023-12-20T03:33:48;20.42;;;8.27;;
59907;SDS011;61804;54.926;73.496;2023-12-20T03:36:17;11.45;;;7.05;;
59907;SDS011;61804;54.926;73.496;2023-12-20T03:38:45;11.82;;;8.73;;
59907;SDS011;61804;54.926;73.496;2023-12-20T03:41:13;14.20;;;10.35;;
59907;SDS011;61804;54.926;73.496;2023-12-20T03:43:41;14.73;;;9.60;;
59907;SDS011;61804;54.926;73.496;2023-12-20T03:46:09;28.15;;;16.42;;
59907;SDS011;61804;54.926;73.496;2023-12-20T03:48:37;16.02;;;12.23;;
59907;SDS011;61804;54.926;73.496;2023-12-20T03:51:05;14.07;;;11.05;;
59907;SDS011;61804;54.926;73.496;2023-12-20T03:53:32;11.70;;;8.55;;
59907;SDS011;61804;54.926;73.496;2023-12-20T03:56:00;16.70;;;9.85;;
59907;SDS011;61804;54.926;73.496;2023-12-20T03:58:28;10.65;;;7.78;;
59907;SDS011;61804;54.926;73.496;2023-12-20T04:00:56;14.93;;;9.32;;
59907;SDS011;61804;54.926;73.496;2023-12-20T04:03:24;6.68;;;6.03;;
59907;SDS011;61804;54.926;73.496;2023-12-20T04:05:52;6.15;;;5.55;;
59907;SDS011;61804;54.926;73.496;2023-12-20T04:08:20;11.32;;;7.53;;
59907;SDS011;61804;54.926;73.496;2023-12-20T04:10:47;13.02;;;9.02;;
59907;SDS011;61804;54.926;73.496;2023-12-20T04:13:14;12.05;;;8.88;;
59907;SDS011;61804;54.926;73.496;2023-12-20T04:15:41;15.00;;;9.30;;
59907;SDS011;61804;54.926;73.496;2023-12-20T04:18:09;21.52;;;16.58;;
59907;SDS011;61804;54.926;73.496;2023-12-20T04:20:37;14.43;;;8.70;;
59907;SDS011;61804;54.926;73.496;2023-12-20T04:23:05;12.85;;;8.80;;
59907;SDS011;61804;54.926;73.496;2023-12-20T04:25:32;20.08;;;10.93;;
59907;SDS011;61804;54.926;73.496;2023-12-20T04:28:00;19.30;;;12.00;;
59907;SDS011;61804;54.926;73.496;2023-12-20T04:30:29;18.13;;;10.52;;
59907;SDS011;61804;54.926;73.496;2023-12-20T04:32:57;17.52;;;11.63;;
59907;SDS011;61804;54.926;73.496;2023-12-20T04:35:25;17.20;;;8.90;;
59907;SDS011;61804;54.926;73.496;2023-12-20T04:37:53;15.63;;;11.70;;
59907;SDS011;61804;54.926;73.496;2023-12-20T04:40:20;38.70;;;20.08;;
59907;SDS011;61804;54.926;73.496;2023-12-20T04:42:49;33.65;;;23.08;;
59907;SDS011;61804;54.926;73.496;2023-12-20T04:45:17;57.08;;;31.38;;
59907;SDS011;61804;54.926;73.496;2023-12-20T04:47:46;21.02;;;16.25;;
59907;SDS011;61804;54.926;73.496;2023-12-20T04:50:14;29.60;;;16.50;;
59907;SDS011;61804;54.926;73.496;2023-12-20T04:52:44;22.45;;;13.48;;
59907;SDS011;61804;54.926;73.496;2023-12-20T04:55:12;9.93;;;7.20;;
59907;SDS011;61804;54.926;73.496;2023-12-20T04:57:39;14.60;;;6.60;;
59907;SDS011;61804;54.926;73.496;2023-12-20T05:00:07;16.58;;;10.98;;
59907;SDS011;61804;54.926;73.496;2023-12-20T05:02:35;8.95;;;7.45;;
59907;SDS011;61804;54.926;73.496;2023-12-20T05:05:03;12.43;;;8.63;;
59907;SDS011;61804;54.926;73.496;2023-12-20T05:07:31;18.20;;;10.27;;
59907;SDS011;61804;54.926;73.496;2023-12-20T05:09:59;18.77;;;10.88;;
59907;SDS011;61804;54.926;73.496;2023-12-20T05:12:28;14.98;;;10.25;;
59907;SDS011;61804;54.926;73.496;2023-12-20T05:14:56;13.23;;;7.50;;
59907;SDS011;61804;54.926;73.496;2023-12-20T05:17:23;14.80;;;10.85;;
59907;SDS011;61804;54.926;73.496;2023-12-20T05:19:51;40.50;;;23.15;;
59907;SDS011;61804;54.926;73.496;2023-12-20T05:22:19;23.85;;;12.77;;
59907;SDS011;61804;54.926;73.496;2023-12-20T05:24:47;16.52;;;10.85;;
59907;SDS011;61804;54.926;73.496;2023-12-20T05:27:15;13.88;;;8.88;;
59907;SDS011;61804;54.926;73.496;2023-12-20T05:29:42;11.75;;;6.65;;
59907;SDS011;61804;54.926;73.496;2023-12-20T05:32:10;16.13;;;9.23;;
59907;SDS011;61804;54.926;73.496;2023-12-20T05:34:37;7.60;;;6.82;;
59907;SDS011;61804;54.926;73.496;2023-12-20T05:37:05;11.35;;;9.23;;
59907;SDS011;61804;54.926;73.496;2023-12-20T05:39:32;15.88;;;7.38;;
59907;SDS011;61804;54.926;73.496;2023-12-20T05:42:00;14.57;;;6.20;;
59907;SDS011;61804;54.926;73.496;2023-12-20T05:44:28;15.10;;;8.73;;
59907;SDS011;61804;54.926;73.496;2023-12-20T05:46:56;20.60;;;12.23;;
59907;SDS011;61804;54.926;73.496;2023-12-20T05:49:23;16.17;;;12.05;;
59907;SDS011;61804;54.926;73.496;2023-12-20T05:51:57;7.70;;;5.80;;
59907;SDS011;61804;54.926;73.496;2023-12-20T05:54:25;10.70;;;6.40;;
59907;SDS011;61804;54.926;73.496;2023-12-20T05:56:52;14.60;;;8.82;;
59907;SDS011;61804;54.926;73.496;2023-12-20T05:59:19;8.77;;;5.63;;
59907;SDS011;61804;54.926;73.496;2023-12-20T06:01:47;10.95;;;9.43;;
59907;SDS011;61804;54.926;73.496;2023-12-20T06:04:14;18.38;;;11.95;;
59907;SDS011;61804;54.926;73.496;2023-12-20T06:06:42;35.13;;;23.52;;
59907;SDS011;61804;54.926;73.496;2023-12-20T06:09:10;35.33;;;20.90;;
59907;SDS011;61804;54.926;73.496;2023-12-20T06:11:37;22.75;;;15.00;;
59907;SDS011;61804;54.926;73.496;2023-12-20T06:14:06;14.02;;;12.52;;
59907;SDS011;61804;54.926;73.496;2023-12-20T06:16:34;14.93;;;9.57;;
59907;SDS011;61804;54.926;73.496;2023-12-20T06:19:02;14.68;;;9.88;;
59907;SDS011;61804;54.926;73.496;2023-12-20T06:21:29;17.10;;;8.73;;
59907;SDS011;61804;54.926;73.496;2023-12-20T06:23:58;14.93;;;8.80;;
59907;SDS011;61804;54.926;73.496;2023-12-20T06:26:25;15.63;;;9.30;;
59907;SDS011;61804;54.926;73.496;2023-12-20T06:28:53;14.30;;;7.82;;
59907;SDS011;61804;54.926;73.496;2023-12-20T06:31:22;6.72;;;5.85;;
59907;SDS011;61804;54.926;73.496;2023-12-20T06:33:51;15.75;;;7.38;;
59907;SDS011;61804;54.926;73.496;2023-12-20T06:36:25;11.63;;;6.70;;
59907;SDS011;61804;54.926;73.496;2023-12-20T06:38:58;7.20;;;6.50;;
59907;SDS011;61804;54.926;73.496;2023-12-20T06:41:27;7.47;;;4.38;;
59907;SDS011;61804;54.926;73.496;2023-12-20T06:43:55;15.32;;;9.75;;
59907;SDS011;61804;54.926;73.496;2023-12-20T06:46:24;33.97;;;22.98;;
59907;SDS011;61804;54.926;73.496;2023-12-20T06:48:53;18.23;;;13.55;;
59907;SDS011;61804;54.926;73.496;2023-12-20T06:51:21;13.40;;;9.07;;
59907;SDS011;61804;54.926;73.496;2023-12-20T06:53:52;8.57;;;5.13;;
59907;SDS011;61804;54.926;73.496;2023-12-20T06:56:19;13.23;;;9.70;;
59907;SDS011;61804;54.926;73.496;2023-12-20T06:58:47;7.65;;;5.75;;
59907;SDS011;61804;54.926;73.496;2023-12-20T07:01:14;20.75;;;13.57;;
59907;SDS011;61804;54.926;73.496;2023-12-20T07:03:41;10.35;;;9.23;;
59907;SDS011;61804;54.926;73.496;2023-12-20T07:06:09;7.63;;;4.93;;
59907;SDS011;61804;54.926;73.496;2023-12-20T07:08:36;10.35;;;7.18;;
59907;SDS011;61804;54.926;73.496;2023-12-20T07:11:04;6.72;;;4.95;;
59907;SDS011;61804;54.926;73.496;2023-12-20T07:13:33;11.05;;;6.68;;
59907;SDS011;61804;54.926;73.496;2023-12-20T07:16:00;11.82;;;5.78;;
59907;SDS011;61804;54.926;73.496;2023-12-20T07:18:28;12.52;;;6.18;;
59907;SDS011;61804;54.926;73.496;2023-12-20T07:20:55;9.43;;;5.65;;
59907;SDS011;61804;54.926;73.496;2023-12-20T07:23:23;8.10;;;6.28;;
59907;SDS011;61804;54.926;73.496;2023-12-20T07:25:52;8.75;;;5.55;;
59907;SDS011;61804;54.926;73.496;2023-12-20T07:28:21;11.75;;;7.18;;
59907;SDS011;61804;54.926;73.496;2023-12-20T07:30:48;6.20;;;4.85;;
59907;SDS011;61804;54.926;73.496;2023-12-20T07:33:16;11.55;;;5.82;;
59907;SDS011;61804;54.926;73.496;2023-12-20T07:35:44;10.25;;;4.47;;
59907;SDS011;61804;54.926;73.496;2023-12-20T07:38:12;9.25;;;6.85;;
59907;SDS011;61804;54.926;73.496;2023-12-20T07:40:40;5.35;;;4.35;;
59907;SDS011;61804;54.926;73.496;2023-12-20T07:43:07;9.50;;;6.07;;
59907;SDS011;61804;54.926;73.496;2023-12-20T07:45:36;6.75;;;5.93;;
59907;SDS011;61804;54.926;73.496;2023-12-20T07:48:05;10.60;;;7.78;;
59907;SDS011;61804;54.926;73.496;2023-12-20T07:50:32;18.30;;;7.25;;
59907;SDS011;61804;54.926;73.496;2023-12-20T07:53:02;20.20;;;9.13;;
59907;SDS011;61804;54.926;73.496;2023-12-20T07:55:31;11.98;;;7.90;;
59907;SDS011;61804;54.926;73.496;2023-12-20T07:57:59;14.55;;;7.00;;
59907;SDS011;61804;54.926;73.496;2023-12-20T08:00:26;9.80;;;8.02;;
59907;SDS011;61804;54.926;73.496;2023-12-20T08:02:54;12.32;;;8.30;;
59907;SDS011;61804;54.926;73.496;2023-12-20T08:05:22;14.35;;;7.63;;
59907;SDS011;61804;54.926;73.496;2023-12-20T08:07:49;10.90;;;6.47;;
59907;SDS011;61804;54.926;73.496;2023-12-20T08:10:17;12.38;;;7.63;;
59907;SDS011;61804;54.926;73.496;2023-12-20T08:12:48;6.25;;;4.88;;
59907;SDS011;61804;54.926;73.496;2023-12-20T08:15:16;6.82;;;5.53;;
59907;SDS011;61804;54.926;73.496;2023-12-20T08:17:44;7.78;;;4.47;;
59907;SDS011;61804;54.926;73.496;2023-12-20T08:20:11;8.30;;;5.40;;
59907;SDS011;61804;54.926;73.496;2023-12-20T08:22:38;5.97;;;5.13;;
59907;SDS011;61804;54.926;73.496;2023-12-20T08:25:07;10.15;;;5.20;;
59907;SDS011;61804;54.926;73.496;2023-12-20T08:27:39;11.65;;;7.22;;
59907;SDS011;61804;54.926;73.496;2023-12-20T08:30:10;5.88;;;5.30;;
59907;SDS011;61804;54.926;73.496;2023-12-20T08:32:37;9.32;;;5.35;;
59907;SDS011;61804;54.926;73.496;2023-12-20T08:35:05;7.75;;;5.00;;
59907;SDS011;61804;54.926;73.496;2023-12-20T08:37:32;10.68;;;7.13;;
59907;SDS011;61804;54.926;73.496;2023-12-20T08:40:01;9.18;;;7.00;;
59907;SDS011;61804;54.926;73.496;2023-12-20T08:42:29;4.00;;;3.58;;
59907;SDS011;61804;54.926;73.496;2023-12-20T08:44:58;6.88;;;5.90;;
59907;SDS011;61804;54.926;73.496;2023-12-20T08:47:25;5.50;;;4.40;;
59907;SDS011;61804;54.926;73.496;2023-12-20T08:49:53;5.88;;;3.45;;
59907;SDS011;61804;54.926;73.496;2023-12-20T08:52:23;6.25;;;3.08;;
59907;SDS011;61804;54.926;73.496;2023-12-20T08:54:50;6.55;;;5.45;;
59907;SDS011;61804;54.926;73.496;2023-12-20T08:57:22;8.00;;;5.43;;
59907;SDS011;61804;54.926;73.496;2023-12-20T08:59:52;7.38;;;5.60;;
59907;SDS011;61804;54.926;73.496;2023-12-20T09:02:20;6.95;;;5.28;;
59907;SDS011;61804;54.926;73.496;2023-12-20T09:04:48;9.55;;;6.68;;
59907;SDS011;61804;54.926;73.496;2023-12-20T09:07:23;5.00;;;3.70;;
59907;SDS011;61804;54.926;73.496;2023-12-20T09:09:52;6.50;;;3.50;;
59907;SDS011;61804;54.926;73.496;2023-12-20T09:12:20;8.38;;;6.55;;
59907;SDS011;61804;54.926;73.496;2023-12-20T09:14:48;7.22;;;6.50;;
59907;SDS011;61804;54.926;73.496;2023-12-20T09:17:16;9.32;;;6.10;;
59907;SDS011;61804;54.926;73.496;2023-12-20T09:19:44;5.13;;;3.47;;
59907;SDS011;61804;54.926;73.496;2023-12-20T09:22:11;8.20;;;5.93;;
59907;SDS011;61804;54.926;73.496;2023-12-20T09:24:40;14.98;;;9.52;;
59907;SDS011;61804;54.926;73.496;2023-12-20T09:27:08;29.77;;;21.35;;
59907;SDS011;61804;54.926;73.496;2023-12-20T09:29:35;72.60;;;44.42;;
59907;SDS011;61804;54.926;73.496;2023-12-20T09:32:03;34.78;;;22.20;;
59907;SDS011;61804;54.926;73.496;2023-12-20T09:34:31;42.80;;;29.98;;
59907;SDS011;61804;54.926;73.496;2023-12-20T09:37:00;43.08;;;29.13;;
59907;SDS011;61804;54.926;73.496;2023-12-20T09:39:30;27.42;;;19.35;;
59907;SDS011;61804;54.926;73.496;2023-12-20T09:42:02;6.95;;;4.93;;
59907;SDS011;61804;54.926;73.496;2023-12-20T09:44:32;4.28;;;3.88;;
59907;SDS011;61804;54.926;73.496;2023-12-20T09:47:05;7.38;;;4.03;;
59907;SDS011;61804;54.926;73.496;2023-12-20T09:49:34;7.05;;;5.03;;
59907;SDS011;61804;54.926;73.496;2023-12-20T09:52:03;8.52;;;6.13;;
59907;SDS011;61804;54.926;73.496;2023-12-20T09:54:33;10.43;;;7.90;;
59907;SDS011;61804;54.926;73.496;2023-12-20T09:57:01;22.40;;;10.25;;
59907;SDS011;61804;54.926;73.496;2023-12-20T09:59:29;16.05;;;12.25;;
59907;SDS011;61804;54.926;73.496;2023-12-20T10:01:57;37.45;;;23.40;;
59907;SDS011;61804;54.926;73.496;2023-12-20T10:04:25;29.23;;;19.40;;
59907;SDS011;61804;54.926;73.496;2023-12-20T10:06:52;27.77;;;14.73;;
59907;SDS011;61804;54.926;73.496;2023-12-20T10:09:20;19.98;;;11.45;;
59907;SDS011;61804;54.926;73.496;2023-12-20T10:11:48;16.77;;;10.75;;
59907;SDS011;61804;54.926;73.496;2023-12-20T10:14:16;13.57;;;9.93;;
59907;SDS011;61804;54.926;73.496;2023-12-20T10:16:45;17.27;;;10.35;;
59907;SDS011;61804;54.926;73.496;2023-12-20T10:19:15;10.50;;;4.80;;
59907;SDS011;61804;54.926;73.496;2023-12-20T10:21:44;26.85;;;9.23;;
59907;SDS011;61804;54.926;73.496;2023-12-20T10:24:21;17.60;;;12.20;;
59907;SDS011;61804;54.926;73.496;2023-12-20T10:27:00;18.23;;;10.38;;
59907;SDS011;61804;54.926;73.496;2023-12-20T10:29:36;16.73;;;8.82;;
59907;SDS011;61804;54.926;73.496;2023-12-20T10:34:52;8.52;;;5.38;;
59907;SDS011;61804;54.926;73.496;2023-12-20T10:37:20;6.90;;;4.50;;
59907;SDS011;61804;54.926;73.496;2023-12-20T10:39:54;10.55;;;7.53;;
59907;SDS011;61804;54.926;73.496;2023-12-20T10:42:26;8.15;;;5.55;;
59907;SDS011;61804;54.926;73.496;2023-12-20T10:44:53;6.13;;;4.68;;
59907;SDS011;61804;54.926;73.496;2023-12-20T10:47:21;7.90;;;4.82;;
59907;SDS011;61804;54.926;73.496;2023-12-20T10:49:50;7.03;;;5.40;;
59907;SDS011;61804;54.926;73.496;2023-12-20T10:52:19;7.00;;;4.25;;
59907;SDS011;61804;54.926;73.496;2023-12-20T10:54:49;8.27;;;5.82;;
59907;SDS011;61804;54.926;73.496;2023-12-20T10:57:18;7.45;;;4.53;;
59907;SDS011;61804;54.926;73.496;2023-12-20T10:59:46;4.88;;;3.90;;
59907;SDS011;61804;54.926;73.496;2023-12-20T11:02:15;4.18;;;3.08;;
59907;SDS011;61804;54.926;73.496;2023-12-20T11:07:21;8.02;;;5.18;;
59907;SDS011;61804;54.926;73.496;2023-12-20T11:10:13;15.82;;;8.90;;
59907;SDS011;61804;54.926;73.496;2023-12-20T11:12:41;12.55;;;8.82;;
59907;SDS011;61804;54.926;73.496;2023-12-20T11:15:13;15.75;;;8.70;;
59907;SDS011;61804;54.926;73.496;2023-12-20T11:17:44;10.82;;;9.27;;
59907;SDS011;61804;54.926;73.496;2023-12-20T11:20:11;30.42;;;18.38;;
59907;SDS011;61804;54.926;73.496;2023-12-20T11:22:40;30.50;;;20.33;;
59907;SDS011;61804;54.926;73.496;2023-12-20T11:25:18;11.80;;;6.93;;
59907;SDS011;61804;54.926;73.496;2023-12-20T11:28:06;12.07;;;8.32;;
59907;SDS011;61804;54.926;73.496;2023-12-20T11:30:42;9.18;;;6.55;;
59907;SDS011;61804;54.926;73.496;2023-12-20T11:33:10;44.15;;;10.18;;
59907;SDS011;61804;54.926;73.496;2023-12-20T11:35:37;25.65;;;16.20;;
59907;SDS011;61804;54.926;73.496;2023-12-20T11:38:07;27.70;;;18.05;;
59907;SDS011;61804;54.926;73.496;2023-12-20T11:40:37;38.58;;;25.30;;
59907;SDS011;61804;54.926;73.496;2023-12-20T11:43:05;27.33;;;18.92;;
59907;SDS011;61804;54.926;73.496;2023-12-20T11:45:32;19.67;;;14.13;;
59907;SDS011;61804;54.926;73.496;2023-12-20T11:48:05;29.15;;;12.68;;
59907;SDS011;61804;54.926;73.496;2023-12-20T11:50:34;21.70;;;11.63;;
59907;SDS011;61804;54.926;73.496;2023-12-20T11:53:01;24.05;;;14.57;;
59907;SDS011;61804;54.926;73.496;2023-12-20T11:55:30;28.27;;;15.13;;
59907;SDS011;61804;54.926;73.496;2023-12-20T11:57:57;22.45;;;13.65;;
59907;SDS011;61804;54.926;73.496;2023-12-20T12:00:26;24.33;;;15.23;;
59907;SDS011;61804;54.926;73.496;2023-12-20T12:02:57;18.25;;;13.35;;
59907;SDS011;61804;54.926;73.496;2023-12-20T12:05:26;23.83;;;14.15;;
59907;SDS011;61804;54.926;73.496;2023-12-20T12:07:53;19.02;;;12.93;;
59907;SDS011;61804;54.926;73.496;2023-12-20T12:10:21;24.38;;;11.50;;
59907;SDS011;61804;54.926;73.496;2023-12-20T12:12:49;20.15;;;12.50;;
59907;SDS011;61804;54.926;73.496;2023-12-20T12:15:17;17.75;;;11.50;;
59907;SDS011;61804;54.926;73.496;2023-12-20T12:18:04;30.33;;;16.42;;
59907;SDS011;61804;54.926;73.496;2023-12-20T12:20:32;24.38;;;18.48;;
59907;SDS011;61804;54.926;73.496;2023-12-20T12:23:09;12.98;;;8.85;;
59907;SDS011;61804;54.926;73.496;2023-12-20T12:25:36;37.13;;;21.63;;
59907;SDS011;61804;54.926;73.496;2023-12-20T12:28:18;14.77;;;10.57;;
59907;SDS011;61804;54.926;73.496;2023-12-20T12:30:58;22.35;;;15.65;;
59907;SDS011;61804;54.926;73.496;2023-12-20T12:33:26;20.05;;;13.93;;
59907;SDS011;61804;54.926;73.496;2023-12-20T12:35:55;16.60;;;12.55;;
59907;SDS011;61804;54.926;73.496;2023-12-20T12:38:34;14.55;;;8.55;;
59907;SDS011;61804;54.926;73.496;2023-12-20T12:41:04;7.50;;;6.60;;
59907;SDS011;61804;54.926;73.496;2023-12-20T12:43:32;12.23;;;8.30;;
59907;SDS011;61804;54.926;73.496;2023-12-20T12:46:12;12.82;;;4.93;;
59907;SDS011;61804;54.926;73.496;2023-12-20T12:48:41;12.75;;;6.90;;
59907;SDS011;61804;54.926;73.496;2023-12-20T12:51:09;10.88;;;6.32;;
59907;SDS011;61804;54.926;73.496;2023-12-20T12:53:40;10.95;;;6.63;;
59907;SDS011;61804;54.926;73.496;2023-12-20T12:56:07;11.43;;;6.93;;
59907;SDS011;61804;54.926;73.496;2023-12-20T12:58:50;12.60;;;10.27;;
59907;SDS011;61804;54.926;73.496;2023-12-20T13:01:17;37.92;;;9.48;;
59907;SDS011;61804;54.926;73.496;2023-12-20T13:03:45;7.78;;;6.05;;
59907;SDS011;61804;54.926;73.496;2023-12-20T13:06:14;10.63;;;7.97;;
59907;SDS011;61804;54.926;73.496;2023-12-20T13:08:42;18.58;;;11.07;;
59907;SDS011;61804;54.926;73.496;2023-12-20T13:11:12;15.07;;;7.72;;
59907;SDS011;61804;54.926;73.496;2023-12-20T13:13:40;18.20;;;12.18;;
59907;SDS011;61804;54.926;73.496;2023-12-20T13:16:08;22.80;;;10.43;;
59907;SDS011;61804;54.926;73.496;2023-12-20T13:18:50;11.45;;;6.63;;
59907;SDS011;61804;54.926;73.496;2023-12-20T13:21:19;25.25;;;15.38;;
59907;SDS011;61804;54.926;73.496;2023-12-20T13:23:46;20.77;;;10.95;;
59907;SDS011;61804;54.926;73.496;2023-12-20T13:26:30;7.55;;;5.53;;
59907;SDS011;61804;54.926;73.496;2023-12-20T13:29:12;17.00;;;7.97;;
59907;SDS011;61804;54.926;73.496;2023-12-20T13:31:48;11.45;;;7.90;;
59907;SDS011;61804;54.926;73.496;2023-12-20T13:34:24;21.48;;;10.75;;
59907;SDS011;61804;54.926;73.496;2023-12-20T13:36:51;71.28;;;34.72;;
59907;SDS011;61804;54.926;73.496;2023-12-20T13:39:19;14.25;;;7.78;;
59907;SDS011;61804;54.926;73.496;2023-12-20T13:41:49;12.40;;;7.50;;
59907;SDS011;61804;54.926;73.496;2023-12-20T13:44:17;19.10;;;10.27;;
59907;SDS011;61804;54.926;73.496;2023-12-20T13:46:46;17.08;;;8.50;;
59907;SDS011;61804;54.926;73.496;2023-12-20T13:49:27;21.20;;;14.23;;
59907;SDS011;61804;54.926;73.496;2023-12-20T13:52:05;36.17;;;23.10;;
59907;SDS011;61804;54.926;73.496;2023-12-20T13:54:41;33.08;;;21.70;;
59907;SDS011;61804;54.926;73.496;2023-12-20T13:57:08;24.10;;;16.27;;
59907;SDS011;61804;54.926;73.496;2023-12-20T13:59:36;22.42;;;14.43;;
59907;SDS011;61804;54.926;73.496;2023-12-20T14:02:05;11.60;;;9.27;;
59907;SDS011;61804;54.926;73.496;2023-12-20T14:04:33;21.67;;;7.82;;
59907;SDS011;61804;54.926;73.496;2023-12-20T14:07:02;20.05;;;12.95;;
59907;SDS011;61804;54.926;73.496;2023-12-20T14:09:30;17.17;;;12.52;;
59907;SDS011;61804;54.926;73.496;2023-12-20T14:11:58;18.20;;;10.82;;
59907;SDS011;61804;54.926;73.496;2023-12-20T14:14:26;20.65;;;12.77;;
59907;SDS011;61804;54.926;73.496;2023-12-20T14:16:54;21.73;;;13.07;;
59907;SDS011;61804;54.926;73.496;2023-12-20T14:19:22;10.93;;;6.65;;
59907;SDS011;61804;54.926;73.496;2023-12-20T14:21:50;12.57;;;8.05;;
59907;SDS011;61804;54.926;73.496;2023-12-20T14:24:18;19.23;;;11.75;;
59907;SDS011;61804;54.926;73.496;2023-12-20T14:26:46;16.33;;;10.40;;
59907;SDS011;61804;54.926;73.496;2023-12-20T14:29:13;16.70;;;12.30;;
59907;SDS011;61804;54.926;73.496;2023-12-20T14:31:40;14.20;;;7.85;;
59907;SDS011;61804;54.926;73.496;2023-12-20T14:34:08;18.67;;;15.05;;